sensor_id;sensor_type;location;lat;lon;timestamp;temperature;humidity
19920;DHT22;10122;50.074;19.920;2023-03-04T00:00:07;3.00;99.90
19920;DHT22;10122;50.074;19.920;2023-03-04T00:02:33;3.00;99.90
19920;DHT22;10122;50.074;19.920;2023-03-04T00:04:59;3.00;99.90
19920;DHT22;10122;50.074;19.920;2023-03-04T00:07:25;3.00;99.90
19920;DHT22;10122;50.074;19.920;2023-03-04T00:09:50;2.90;99.90
19920;DHT22;10122;50.074;19.920;2023-03-04T00:12:16;2.90;99.90
19920;DHT22;10122;50.074;19.920;2023-03-04T00:14:42;2.90;99.90
19920;DHT22;10122;50.074;19.920;2023-03-04T00:17:07;2.90;99.90
19920;DHT22;10122;50.074;19.920;2023-03-04T00:19:33;2.80;99.90
19920;DHT22;10122;50.074;19.920;2023-03-04T00:22:00;3.00;99.90
19920;DHT22;10122;50.074;19.920;2023-03-04T00:24:26;3.00;99.90
19920;DHT22;10122;50.074;19.920;2023-03-04T00:26:51;2.90;99.90
19920;DHT22;10122;50.074;19.920;2023-03-04T00:29:17;3.00;99.90
19920;DHT22;10122;50.074;19.920;2023-03-04T00:31:43;3.00;99.90
19920;DHT22;10122;50.074;19.920;2023-03-04T00:34:09;3.00;99.90
19920;DHT22;10122;50.074;19.920;2023-03-04T00:36:34;3.00;99.90
19920;DHT22;10122;50.074;19.920;2023-03-04T00:39:00;3.10;99.90
19920;DHT22;10122;50.074;19.920;2023-03-04T00:41:26;3.10;99.90
19920;DHT22;10122;50.074;19.920;2023-03-04T00:43:51;3.00;99.90
19920;DHT22;10122;50.074;19.920;2023-03-04T00:46:17;3.00;99.90
19920;DHT22;10122;50.074;19.920;2023-03-04T00:48:43;3.00;99.90
19920;DHT22;10122;50.074;19.920;2023-03-04T00:51:08;3.00;99.90
19920;DHT22;10122;50.074;19.920;2023-03-04T00:53:34;3.00;99.90
19920;DHT22;10122;50.074;19.920;2023-03-04T00:56:00;3.00;99.90
19920;DHT22;10122;50.074;19.920;2023-03-04T00:58:25;3.00;99.90
19920;DHT22;10122;50.074;19.920;2023-03-04T01:00:51;2.90;99.90
19920;DHT22;10122;50.074;19.920;2023-03-04T01:03:17;2.90;99.90
19920;DHT22;10122;50.074;19.920;2023-03-04T01:05:42;2.80;99.90
19920;DHT22;10122;50.074;19.920;2023-03-04T01:08:08;2.80;99.90
19920;DHT22;10122;50.074;19.920;2023-03-04T01:10:34;2.90;99.90
19920;DHT22;10122;50.074;19.920;2023-03-04T01:13:00;2.90;99.90
19920;DHT22;10122;50.074;19.920;2023-03-04T01:15:25;2.90;99.90
19920;DHT22;10122;50.074;19.920;2023-03-04T01:17:51;2.90;99.90
19920;DHT22;10122;50.074;19.920;2023-03-04T01:20:17;2.90;99.90
19920;DHT22;10122;50.074;19.920;2023-03-04T01:22:43;2.90;99.90
19920;DHT22;10122;50.074;19.920;2023-03-04T01:25:09;2.90;99.90
19920;DHT22;10122;50.074;19.920;2023-03-04T01:27:35;2.90;99.90
19920;DHT22;10122;50.074;19.920;2023-03-04T01:30:01;2.90;99.90
19920;DHT22;10122;50.074;19.920;2023-03-04T01:32:26;2.90;99.90
19920;DHT22;10122;50.074;19.920;2023-03-04T01:34:52;2.90;99.90
19920;DHT22;10122;50.074;19.920;2023-03-04T01:37:18;2.80;99.90
19920;DHT22;10122;50.074;19.920;2023-03-04T01:39:43;2.80;99.90
19920;DHT22;10122;50.074;19.920;2023-03-04T01:42:19;2.80;99.90
19920;DHT22;10122;50.074;19.920;2023-03-04T01:44:46;2.90;99.90
19920;DHT22;10122;50.074;19.920;2023-03-04T01:47:13;2.90;99.90
19920;DHT22;10122;50.074;19.920;2023-03-04T01:49:39;2.90;99.90
19920;DHT22;10122;50.074;19.920;2023-03-04T01:52:05;2.90;99.90
19920;DHT22;10122;50.074;19.920;2023-03-04T01:54:34;2.80;99.90
19920;DHT22;10122;50.074;19.920;2023-03-04T01:57:00;2.90;99.90
19920;DHT22;10122;50.074;19.920;2023-03-04T01:59:29;2.90;99.90
19920;DHT22;10122;50.074;19.920;2023-03-04T02:01:58;2.90;99.90
19920;DHT22;10122;50.074;19.920;2023-03-04T02:04:27;2.90;99.90
19920;DHT22;10122;50.074;19.920;2023-03-04T02:06:54;2.90;99.90
19920;DHT22;10122;50.074;19.920;2023-03-04T02:09:21;2.90;99.90
19920;DHT22;10122;50.074;19.920;2023-03-04T02:11:47;2.90;99.90
19920;DHT22;10122;50.074;19.920;2023-03-04T02:14:14;2.90;99.90
19920;DHT22;10122;50.074;19.920;2023-03-04T02:16:41;2.90;99.90
19920;DHT22;10122;50.074;19.920;2023-03-04T02:19:15;3.00;99.90
19920;DHT22;10122;50.074;19.920;2023-03-04T02:21:44;3.00;99.90
19920;DHT22;10122;50.074;19.920;2023-03-04T02:24:45;3.00;99.90
19920;DHT22;10122;50.074;19.920;2023-03-04T02:27:12;2.90;99.90
19920;DHT22;10122;50.074;19.920;2023-03-04T02:29:37;2.90;99.90
19920;DHT22;10122;50.074;19.920;2023-03-04T02:32:03;2.90;99.90
19920;DHT22;10122;50.074;19.920;2023-03-04T02:34:32;2.90;99.90
19920;DHT22;10122;50.074;19.920;2023-03-04T02:36:59;2.80;99.90
19920;DHT22;10122;50.074;19.920;2023-03-04T02:39:30;2.80;99.90
19920;DHT22;10122;50.074;19.920;2023-03-04T02:41:57;2.80;99.90
19920;DHT22;10122;50.074;19.920;2023-03-04T02:44:25;2.80;99.90
19920;DHT22;10122;50.074;19.920;2023-03-04T02:46:51;2.80;99.90
19920;DHT22;10122;50.074;19.920;2023-03-04T02:49:18;2.80;99.90
19920;DHT22;10122;50.074;19.920;2023-03-04T02:51:44;2.90;99.90
19920;DHT22;10122;50.074;19.920;2023-03-04T02:54:17;2.90;99.90
19920;DHT22;10122;50.074;19.920;2023-03-04T02:56:48;2.80;99.90
19920;DHT22;10122;50.074;19.920;2023-03-04T02:59:15;2.80;99.90
19920;DHT22;10122;50.074;19.920;2023-03-04T03:01:41;2.80;99.90
19920;DHT22;10122;50.074;19.920;2023-03-04T03:04:06;2.90;99.90
19920;DHT22;10122;50.074;19.920;2023-03-04T03:06:32;2.90;99.90
19920;DHT22;10122;50.074;19.920;2023-03-04T03:08:58;2.90;99.90
19920;DHT22;10122;50.074;19.920;2023-03-04T03:11:24;2.90;99.90
19920;DHT22;10122;50.074;19.920;2023-03-04T03:13:49;2.90;99.90
19920;DHT22;10122;50.074;19.920;2023-03-04T03:16:15;2.80;99.90
19920;DHT22;10122;50.074;19.920;2023-03-04T03:18:41;2.80;99.90
19920;DHT22;10122;50.074;19.920;2023-03-04T03:21:07;2.70;99.90
19920;DHT22;10122;50.074;19.920;2023-03-04T03:23:33;2.70;99.90
19920;DHT22;10122;50.074;19.920;2023-03-04T03:25:59;2.70;99.90
19920;DHT22;10122;50.074;19.920;2023-03-04T03:28:24;2.80;99.90
19920;DHT22;10122;50.074;19.920;2023-03-04T03:30:50;2.80;99.90
19920;DHT22;10122;50.074;19.920;2023-03-04T03:33:16;2.90;99.90
19920;DHT22;10122;50.074;19.920;2023-03-04T03:35:41;2.80;99.90
19920;DHT22;10122;50.074;19.920;2023-03-04T03:38:07;2.90;99.90
19920;DHT22;10122;50.074;19.920;2023-03-04T03:40:33;2.90;99.90
19920;DHT22;10122;50.074;19.920;2023-03-04T03:42:59;2.80;99.90
19920;DHT22;10122;50.074;19.920;2023-03-04T03:45:24;2.80;99.90
19920;DHT22;10122;50.074;19.920;2023-03-04T03:47:50;2.80;99.90
19920;DHT22;10122;50.074;19.920;2023-03-04T03:50:16;2.80;99.90
19920;DHT22;10122;50.074;19.920;2023-03-04T03:52:41;2.80;99.90
19920;DHT22;10122;50.074;19.920;2023-03-04T03:55:08;2.80;99.90
19920;DHT22;10122;50.074;19.920;2023-03-04T03:57:33;2.80;99.90
19920;DHT22;10122;50.074;19.920;2023-03-04T04:00:00;2.80;99.90
19920;DHT22;10122;50.074;19.920;2023-03-04T04:02:26;2.90;99.90
19920;DHT22;10122;50.074;19.920;2023-03-04T04:04:51;2.80;99.90
19920;DHT22;10122;50.074;19.920;2023-03-04T04:07:17;2.80;99.90
19920;DHT22;10122;50.074;19.920;2023-03-04T04:09:43;2.80;99.90
19920;DHT22;10122;50.074;19.920;2023-03-04T04:12:12;2.80;99.90
19920;DHT22;10122;50.074;19.920;2023-03-04T04:14:37;2.80;99.90
19920;DHT22;10122;50.074;19.920;2023-03-04T04:17:03;2.80;99.90
19920;DHT22;10122;50.074;19.920;2023-03-04T04:19:29;2.80;99.90
19920;DHT22;10122;50.074;19.920;2023-03-04T04:21:54;2.80;99.90
19920;DHT22;10122;50.074;19.920;2023-03-04T04:24:20;2.80;99.90
19920;DHT22;10122;50.074;19.920;2023-03-04T04:26:46;2.70;99.90
19920;DHT22;10122;50.074;19.920;2023-03-04T04:29:13;2.70;99.90
19920;DHT22;10122;50.074;19.920;2023-03-04T04:31:39;2.70;99.90
19920;DHT22;10122;50.074;19.920;2023-03-04T04:34:05;2.70;99.90
19920;DHT22;10122;50.074;19.920;2023-03-04T04:36:31;2.70;99.90
19920;DHT22;10122;50.074;19.920;2023-03-04T04:38:56;2.80;99.90
19920;DHT22;10122;50.074;19.920;2023-03-04T04:41:24;2.80;99.90
19920;DHT22;10122;50.074;19.920;2023-03-04T04:43:50;2.80;99.90
19920;DHT22;10122;50.074;19.920;2023-03-04T04:46:17;2.80;99.90
19920;DHT22;10122;50.074;19.920;2023-03-04T04:48:43;2.70;99.90
19920;DHT22;10122;50.074;19.920;2023-03-04T04:51:09;2.70;99.90
19920;DHT22;10122;50.074;19.920;2023-03-04T04:53:35;2.70;99.90
19920;DHT22;10122;50.074;19.920;2023-03-04T04:56:25;2.60;99.90
19920;DHT22;10122;50.074;19.920;2023-03-04T04:58:56;2.60;99.90
19920;DHT22;10122;50.074;19.920;2023-03-04T05:01:23;2.50;99.90
19920;DHT22;10122;50.074;19.920;2023-03-04T05:03:49;2.50;99.90
19920;DHT22;10122;50.074;19.920;2023-03-04T05:06:15;2.50;99.90
19920;DHT22;10122;50.074;19.920;2023-03-04T05:08:41;2.50;99.90
19920;DHT22;10122;50.074;19.920;2023-03-04T05:11:07;2.50;99.90
19920;DHT22;10122;50.074;19.920;2023-03-04T05:13:34;2.50;99.90
19920;DHT22;10122;50.074;19.920;2023-03-04T05:16:00;2.50;99.90
19920;DHT22;10122;50.074;19.920;2023-03-04T05:18:26;2.50;99.90
19920;DHT22;10122;50.074;19.920;2023-03-04T05:20:57;2.50;99.90
19920;DHT22;10122;50.074;19.920;2023-03-04T05:23:24;2.50;99.90
19920;DHT22;10122;50.074;19.920;2023-03-04T05:25:50;2.50;99.90
19920;DHT22;10122;50.074;19.920;2023-03-04T05:28:16;2.50;99.90
19920;DHT22;10122;50.074;19.920;2023-03-04T05:30:43;2.40;99.90
19920;DHT22;10122;50.074;19.920;2023-03-04T05:33:11;2.40;99.90
19920;DHT22;10122;50.074;19.920;2023-03-04T05:35:38;2.40;99.90
19920;DHT22;10122;50.074;19.920;2023-03-04T05:38:06;2.40;99.90
19920;DHT22;10122;50.074;19.920;2023-03-04T05:40:32;2.40;99.90
19920;DHT22;10122;50.074;19.920;2023-03-04T05:42:58;2.40;99.90
19920;DHT22;10122;50.074;19.920;2023-03-04T05:45:24;2.50;99.90
19920;DHT22;10122;50.074;19.920;2023-03-04T05:47:51;2.50;99.90
19920;DHT22;10122;50.074;19.920;2023-03-04T05:50:17;2.60;99.90
19920;DHT22;10122;50.074;19.920;2023-03-04T05:52:43;2.60;99.90
19920;DHT22;10122;50.074;19.920;2023-03-04T05:55:09;2.70;99.90
19920;DHT22;10122;50.074;19.920;2023-03-04T05:57:35;2.70;99.90
19920;DHT22;10122;50.074;19.920;2023-03-04T06:00:03;2.70;99.90
19920;DHT22;10122;50.074;19.920;2023-03-04T06:02:30;2.80;99.90
19920;DHT22;10122;50.074;19.920;2023-03-04T06:04:56;2.90;99.90
19920;DHT22;10122;50.074;19.920;2023-03-04T06:07:21;2.80;99.90
19920;DHT22;10122;50.074;19.920;2023-03-04T06:09:47;2.90;99.90
19920;DHT22;10122;50.074;19.920;2023-03-04T06:12:13;2.90;99.90
19920;DHT22;10122;50.074;19.920;2023-03-04T06:14:38;2.90;99.90
19920;DHT22;10122;50.074;19.920;2023-03-04T06:17:04;2.90;99.90
19920;DHT22;10122;50.074;19.920;2023-03-04T06:19:30;3.00;99.90
19920;DHT22;10122;50.074;19.920;2023-03-04T06:21:55;3.00;99.90
19920;DHT22;10122;50.074;19.920;2023-03-04T06:24:21;3.00;99.90
19920;DHT22;10122;50.074;19.920;2023-03-04T06:26:47;3.00;99.90
19920;DHT22;10122;50.074;19.920;2023-03-04T06:29:13;3.00;99.90
19920;DHT22;10122;50.074;19.920;2023-03-04T06:31:38;3.00;99.90
19920;DHT22;10122;50.074;19.920;2023-03-04T06:34:09;3.00;99.90
19920;DHT22;10122;50.074;19.920;2023-03-04T06:36:35;3.10;99.90
19920;DHT22;10122;50.074;19.920;2023-03-04T06:39:03;3.10;99.90
19920;DHT22;10122;50.074;19.920;2023-03-04T06:41:29;3.10;99.90
19920;DHT22;10122;50.074;19.920;2023-03-04T06:43:55;3.10;99.90
19920;DHT22;10122;50.074;19.920;2023-03-04T06:46:21;3.10;99.90
19920;DHT22;10122;50.074;19.920;2023-03-04T06:48:46;3.10;99.90
19920;DHT22;10122;50.074;19.920;2023-03-04T06:51:12;3.10;99.90
19920;DHT22;10122;50.074;19.920;2023-03-04T06:53:39;3.20;99.90
19920;DHT22;10122;50.074;19.920;2023-03-04T06:56:07;3.10;99.90
19920;DHT22;10122;50.074;19.920;2023-03-04T06:58:33;3.10;99.90
19920;DHT22;10122;50.074;19.920;2023-03-04T07:03:38;3.20;99.90
19920;DHT22;10122;50.074;19.920;2023-03-04T07:06:04;3.20;99.90
19920;DHT22;10122;50.074;19.920;2023-03-04T07:08:30;3.10;99.90
19920;DHT22;10122;50.074;19.920;2023-03-04T07:10:55;3.10;99.90
19920;DHT22;10122;50.074;19.920;2023-03-04T07:13:21;3.10;99.90
19920;DHT22;10122;50.074;19.920;2023-03-04T07:15:47;3.10;99.90
19920;DHT22;10122;50.074;19.920;2023-03-04T07:18:12;3.10;99.90
19920;DHT22;10122;50.074;19.920;2023-03-04T07:20:38;3.10;99.90
19920;DHT22;10122;50.074;19.920;2023-03-04T07:23:22;3.10;99.90
19920;DHT22;10122;50.074;19.920;2023-03-04T07:25:49;3.10;99.90
19920;DHT22;10122;50.074;19.920;2023-03-04T07:28:15;3.10;99.90
19920;DHT22;10122;50.074;19.920;2023-03-04T07:30:41;3.20;99.90
19920;DHT22;10122;50.074;19.920;2023-03-04T07:33:06;3.20;99.90
19920;DHT22;10122;50.074;19.920;2023-03-04T07:35:32;3.10;99.90
19920;DHT22;10122;50.074;19.920;2023-03-04T07:37:58;3.00;99.90
19920;DHT22;10122;50.074;19.920;2023-03-04T07:40:23;3.00;99.90
19920;DHT22;10122;50.074;19.920;2023-03-04T07:42:51;3.00;99.90
19920;DHT22;10122;50.074;19.920;2023-03-04T07:45:16;3.00;99.90
19920;DHT22;10122;50.074;19.920;2023-03-04T07:47:42;3.10;99.90
19920;DHT22;10122;50.074;19.920;2023-03-04T07:50:09;3.10;99.90
19920;DHT22;10122;50.074;19.920;2023-03-04T07:52:44;3.10;99.90
19920;DHT22;10122;50.074;19.920;2023-03-04T07:55:11;3.10;99.90
19920;DHT22;10122;50.074;19.920;2023-03-04T07:57:38;3.10;99.90
19920;DHT22;10122;50.074;19.920;2023-03-04T08:00:04;3.00;99.90
19920;DHT22;10122;50.074;19.920;2023-03-04T08:02:30;3.10;99.90
19920;DHT22;10122;50.074;19.920;2023-03-04T08:04:56;3.10;99.90
19920;DHT22;10122;50.074;19.920;2023-03-04T08:07:22;3.00;99.90
19920;DHT22;10122;50.074;19.920;2023-03-04T08:09:48;3.00;99.90
19920;DHT22;10122;50.074;19.920;2023-03-04T08:12:14;2.90;99.90
19920;DHT22;10122;50.074;19.920;2023-03-04T08:14:40;2.90;99.90
19920;DHT22;10122;50.074;19.920;2023-03-04T08:17:05;2.90;99.90
19920;DHT22;10122;50.074;19.920;2023-03-04T08:19:31;3.00;99.90
19920;DHT22;10122;50.074;19.920;2023-03-04T08:21:57;3.00;99.90
19920;DHT22;10122;50.074;19.920;2023-03-04T08:24:22;3.00;99.90
19920;DHT22;10122;50.074;19.920;2023-03-04T08:26:49;3.00;99.90
19920;DHT22;10122;50.074;19.920;2023-03-04T08:29:18;3.00;99.90
19920;DHT22;10122;50.074;19.920;2023-03-04T08:31:46;3.00;99.90
19920;DHT22;10122;50.074;19.920;2023-03-04T08:34:12;3.10;99.90
19920;DHT22;10122;50.074;19.920;2023-03-04T08:36:40;3.10;99.90
19920;DHT22;10122;50.074;19.920;2023-03-04T08:39:08;3.20;99.90
19920;DHT22;10122;50.074;19.920;2023-03-04T08:41:34;3.20;99.90
19920;DHT22;10122;50.074;19.920;2023-03-04T08:44:00;3.20;99.90
19920;DHT22;10122;50.074;19.920;2023-03-04T08:46:26;3.10;99.90
19920;DHT22;10122;50.074;19.920;2023-03-04T08:48:52;3.20;99.90
19920;DHT22;10122;50.074;19.920;2023-03-04T08:51:18;3.20;99.90
19920;DHT22;10122;50.074;19.920;2023-03-04T08:53:44;3.20;99.90
19920;DHT22;10122;50.074;19.920;2023-03-04T08:56:11;3.20;99.90
19920;DHT22;10122;50.074;19.920;2023-03-04T08:58:36;3.20;99.90
19920;DHT22;10122;50.074;19.920;2023-03-04T09:01:03;3.20;99.90
19920;DHT22;10122;50.074;19.920;2023-03-04T09:03:29;3.20;99.90
19920;DHT22;10122;50.074;19.920;2023-03-04T09:05:56;3.40;99.90
19920;DHT22;10122;50.074;19.920;2023-03-04T09:08:22;3.50;99.90
19920;DHT22;10122;50.074;19.920;2023-03-04T09:10:51;3.40;99.90
19920;DHT22;10122;50.074;19.920;2023-03-04T09:13:18;3.40;99.90
19920;DHT22;10122;50.074;19.920;2023-03-04T09:15:48;3.40;99.90
19920;DHT22;10122;50.074;19.920;2023-03-04T09:18:16;3.30;99.90
19920;DHT22;10122;50.074;19.920;2023-03-04T09:20:43;3.30;99.90
19920;DHT22;10122;50.074;19.920;2023-03-04T09:23:09;3.30;99.90
19920;DHT22;10122;50.074;19.920;2023-03-04T09:25:35;3.20;99.90
19920;DHT22;10122;50.074;19.920;2023-03-04T09:28:01;3.20;99.90
19920;DHT22;10122;50.074;19.920;2023-03-04T09:30:27;3.10;99.90
19920;DHT22;10122;50.074;19.920;2023-03-04T09:32:53;3.20;99.90
19920;DHT22;10122;50.074;19.920;2023-03-04T09:35:19;3.20;99.90
19920;DHT22;10122;50.074;19.920;2023-03-04T09:37:45;3.30;99.90
19920;DHT22;10122;50.074;19.920;2023-03-04T09:40:23;3.30;99.90
19920;DHT22;10122;50.074;19.920;2023-03-04T09:42:56;3.30;99.90
19920;DHT22;10122;50.074;19.920;2023-03-04T09:45:28;3.30;99.90
19920;DHT22;10122;50.074;19.920;2023-03-04T09:47:56;3.20;99.90
19920;DHT22;10122;50.074;19.920;2023-03-04T09:50:22;3.30;99.90
19920;DHT22;10122;50.074;19.920;2023-03-04T09:53:05;3.30;99.90
19920;DHT22;10122;50.074;19.920;2023-03-04T09:55:43;3.40;99.90
19920;DHT22;10122;50.074;19.920;2023-03-04T09:58:49;3.30;99.90
19920;DHT22;10122;50.074;19.920;2023-03-04T10:01:33;3.30;99.90
19920;DHT22;10122;50.074;19.920;2023-03-04T10:06:52;3.40;99.90
19920;DHT22;10122;50.074;19.920;2023-03-04T10:09:23;3.40;99.90
19920;DHT22;10122;50.074;19.920;2023-03-04T10:12:08;3.40;99.90
19920;DHT22;10122;50.074;19.920;2023-03-04T10:14:47;3.40;99.90
19920;DHT22;10122;50.074;19.920;2023-03-04T10:17:20;3.50;99.90
19920;DHT22;10122;50.074;19.920;2023-03-04T10:20:11;3.50;99.90
19920;DHT22;10122;50.074;19.920;2023-03-04T10:22:46;3.50;99.90
19920;DHT22;10122;50.074;19.920;2023-03-04T10:25:25;3.50;99.90
19920;DHT22;10122;50.074;19.920;2023-03-04T10:27:56;3.50;99.90
19920;DHT22;10122;50.074;19.920;2023-03-04T10:30:58;3.50;99.90
19920;DHT22;10122;50.074;19.920;2023-03-04T10:33:29;3.50;99.90
19920;DHT22;10122;50.074;19.920;2023-03-04T10:36:14;3.50;99.90
19920;DHT22;10122;50.074;19.920;2023-03-04T10:38:44;3.50;99.90
19920;DHT22;10122;50.074;19.920;2023-03-04T10:41:19;3.50;99.90
19920;DHT22;10122;50.074;19.920;2023-03-04T10:43:59;3.50;99.90
19920;DHT22;10122;50.074;19.920;2023-03-04T10:46:25;3.50;99.90
19920;DHT22;10122;50.074;19.920;2023-03-04T10:48:52;3.50;99.90
19920;DHT22;10122;50.074;19.920;2023-03-04T10:51:27;3.50;99.90
19920;DHT22;10122;50.074;19.920;2023-03-04T10:54:25;3.40;99.90
19920;DHT22;10122;50.074;19.920;2023-03-04T11:02:47;3.50;99.90
19920;DHT22;10122;50.074;19.920;2023-03-04T11:10:21;3.50;99.90
19920;DHT22;10122;50.074;19.920;2023-03-04T11:15:57;3.60;99.90
19920;DHT22;10122;50.074;19.920;2023-03-04T11:20:55;3.60;99.90
19920;DHT22;10122;50.074;19.920;2023-03-04T11:26:01;3.60;99.90
19920;DHT22;10122;50.074;19.920;2023-03-04T11:34:07;3.60;99.90
19920;DHT22;10122;50.074;19.920;2023-03-04T11:39:40;3.60;99.90
19920;DHT22;10122;50.074;19.920;2023-03-04T11:45:46;3.60;99.90
19920;DHT22;10122;50.074;19.920;2023-03-04T11:51:04;3.90;99.90
19920;DHT22;10122;50.074;19.920;2023-03-04T11:53:44;3.80;99.90
19920;DHT22;10122;50.074;19.920;2023-03-04T12:05:18;3.60;99.90
19920;DHT22;10122;50.074;19.920;2023-03-04T12:10:36;3.60;99.90
19920;DHT22;10122;50.074;19.920;2023-03-04T12:24:15;3.60;99.90
19920;DHT22;10122;50.074;19.920;2023-03-04T12:26:54;3.60;99.90
19920;DHT22;10122;50.074;19.920;2023-03-04T12:29:44;3.60;99.90
19920;DHT22;10122;50.074;19.920;2023-03-04T12:32:43;3.60;99.90
19920;DHT22;10122;50.074;19.920;2023-03-04T12:35:34;3.60;99.90
19920;DHT22;10122;50.074;19.920;2023-03-04T12:43:48;3.70;99.90
19920;DHT22;10122;50.074;19.920;2023-03-04T12:52:14;3.70;99.90
19920;DHT22;10122;50.074;19.920;2023-03-04T12:54:48;3.70;99.90
19920;DHT22;10122;50.074;19.920;2023-03-04T12:57:22;3.70;99.90
19920;DHT22;10122;50.074;19.920;2023-03-04T13:02:38;3.80;99.90
19920;DHT22;10122;50.074;19.920;2023-03-04T13:10:51;3.90;99.90
19920;DHT22;10122;50.074;19.920;2023-03-04T13:13:40;3.90;99.90
19920;DHT22;10122;50.074;19.920;2023-03-04T13:16:30;4.00;99.90
19920;DHT22;10122;50.074;19.920;2023-03-04T13:18:58;4.00;99.90
19920;DHT22;10122;50.074;19.920;2023-03-04T13:21:29;4.00;99.90
19920;DHT22;10122;50.074;19.920;2023-03-04T13:23:57;4.10;99.90
19920;DHT22;10122;50.074;19.920;2023-03-04T13:26:32;4.10;99.90
19920;DHT22;10122;50.074;19.920;2023-03-04T13:43:54;4.20;99.90
19920;DHT22;10122;50.074;19.920;2023-03-04T13:51:24;4.20;99.90
19920;DHT22;10122;50.074;19.920;2023-03-04T13:56:35;4.10;99.90
19920;DHT22;10122;50.074;19.920;2023-03-04T13:59:11;4.00;99.90
19920;DHT22;10122;50.074;19.920;2023-03-04T14:06:45;4.00;99.90
19920;DHT22;10122;50.074;19.920;2023-03-04T14:09:18;4.00;99.90
19920;DHT22;10122;50.074;19.920;2023-03-04T14:11:45;4.00;99.90
19920;DHT22;10122;50.074;19.920;2023-03-04T14:14:17;4.10;99.90
19920;DHT22;10122;50.074;19.920;2023-03-04T14:16:52;4.00;99.90
19920;DHT22;10122;50.074;19.920;2023-03-04T14:21:47;4.10;99.90
19920;DHT22;10122;50.074;19.920;2023-03-04T14:24:16;4.10;99.90
19920;DHT22;10122;50.074;19.920;2023-03-04T14:26:42;4.40;99.90
19920;DHT22;10122;50.074;19.920;2023-03-04T14:29:26;4.40;99.90
19920;DHT22;10122;50.074;19.920;2023-03-04T14:31:53;4.30;99.90
19920;DHT22;10122;50.074;19.920;2023-03-04T14:34:31;4.30;99.90
19920;DHT22;10122;50.074;19.920;2023-03-04T14:37:00;4.20;99.90
19920;DHT22;10122;50.074;19.920;2023-03-04T14:39:29;4.20;99.90
19920;DHT22;10122;50.074;19.920;2023-03-04T14:41:57;4.20;99.90
19920;DHT22;10122;50.074;19.920;2023-03-04T14:44:38;4.10;99.90
19920;DHT22;10122;50.074;19.920;2023-03-04T14:47:18;4.10;99.90
19920;DHT22;10122;50.074;19.920;2023-03-04T14:49:46;4.10;99.90
19920;DHT22;10122;50.074;19.920;2023-03-04T14:52:32;4.10;99.90
19920;DHT22;10122;50.074;19.920;2023-03-04T14:57:30;4.00;99.90
19920;DHT22;10122;50.074;19.920;2023-03-04T15:00:23;4.00;99.90
19920;DHT22;10122;50.074;19.920;2023-03-04T15:02:59;4.00;99.90
19920;DHT22;10122;50.074;19.920;2023-03-04T15:05:28;4.00;99.90
19920;DHT22;10122;50.074;19.920;2023-03-04T15:07:59;4.00;99.90
19920;DHT22;10122;50.074;19.920;2023-03-04T15:10:29;4.00;99.90
19920;DHT22;10122;50.074;19.920;2023-03-04T15:12:58;4.00;99.90
19920;DHT22;10122;50.074;19.920;2023-03-04T15:15:44;4.00;99.90
19920;DHT22;10122;50.074;19.920;2023-03-04T15:20:39;3.90;99.90
19920;DHT22;10122;50.074;19.920;2023-03-04T15:23:06;3.90;99.90
19920;DHT22;10122;50.074;19.920;2023-03-04T15:25:33;3.90;99.90
19920;DHT22;10122;50.074;19.920;2023-03-04T15:27:59;3.90;99.90
19920;DHT22;10122;50.074;19.920;2023-03-04T15:30:28;3.90;99.90
19920;DHT22;10122;50.074;19.920;2023-03-04T15:32:55;3.90;99.90
19920;DHT22;10122;50.074;19.920;2023-03-04T15:35:22;3.90;99.90
19920;DHT22;10122;50.074;19.920;2023-03-04T15:37:49;3.90;99.90
19920;DHT22;10122;50.074;19.920;2023-03-04T15:40:26;3.90;99.90
19920;DHT22;10122;50.074;19.920;2023-03-04T15:42:54;3.90;99.90
19920;DHT22;10122;50.074;19.920;2023-03-04T15:45:33;3.90;99.90
19920;DHT22;10122;50.074;19.920;2023-03-04T15:48:03;3.90;99.90
19920;DHT22;10122;50.074;19.920;2023-03-04T15:50:34;3.90;99.90
19920;DHT22;10122;50.074;19.920;2023-03-04T15:53:02;3.90;99.90
19920;DHT22;10122;50.074;19.920;2023-03-04T15:55:29;3.90;99.90
19920;DHT22;10122;50.074;19.920;2023-03-04T15:57:57;3.90;99.90
19920;DHT22;10122;50.074;19.920;2023-03-04T16:00:24;3.90;99.90
19920;DHT22;10122;50.074;19.920;2023-03-04T16:02:50;3.90;99.90
19920;DHT22;10122;50.074;19.920;2023-03-04T16:05:16;3.90;99.90
19920;DHT22;10122;50.074;19.920;2023-03-04T16:07:45;3.90;99.90
19920;DHT22;10122;50.074;19.920;2023-03-04T16:12:46;3.90;99.90
19920;DHT22;10122;50.074;19.920;2023-03-04T16:15:15;3.90;99.90
19920;DHT22;10122;50.074;19.920;2023-03-04T16:17:41;3.90;99.90
19920;DHT22;10122;50.074;19.920;2023-03-04T16:20:10;3.90;99.90
19920;DHT22;10122;50.074;19.920;2023-03-04T16:22:37;3.90;99.90
19920;DHT22;10122;50.074;19.920;2023-03-04T16:25:03;3.90;99.90
19920;DHT22;10122;50.074;19.920;2023-03-04T16:27:30;4.00;99.90
19920;DHT22;10122;50.074;19.920;2023-03-04T16:29:56;4.00;99.90
19920;DHT22;10122;50.074;19.920;2023-03-04T16:32:22;3.90;99.90
19920;DHT22;10122;50.074;19.920;2023-03-04T16:34:49;4.00;99.90
19920;DHT22;10122;50.074;19.920;2023-03-04T16:37:17;4.00;99.90
19920;DHT22;10122;50.074;19.920;2023-03-04T16:39:45;4.00;99.90
19920;DHT22;10122;50.074;19.920;2023-03-04T16:42:14;4.00;99.90
19920;DHT22;10122;50.074;19.920;2023-03-04T16:44:41;4.00;99.90
19920;DHT22;10122;50.074;19.920;2023-03-04T16:47:07;4.00;99.90
19920;DHT22;10122;50.074;19.920;2023-03-04T16:49:33;4.00;99.90
19920;DHT22;10122;50.074;19.920;2023-03-04T16:51:58;4.00;99.90
19920;DHT22;10122;50.074;19.920;2023-03-04T16:54:28;4.00;99.90
19920;DHT22;10122;50.074;19.920;2023-03-04T16:56:55;4.00;99.90
19920;DHT22;10122;50.074;19.920;2023-03-04T16:59:21;4.10;99.90
19920;DHT22;10122;50.074;19.920;2023-03-04T17:01:48;4.10;99.90
19920;DHT22;10122;50.074;19.920;2023-03-04T17:04:13;4.00;99.90
19920;DHT22;10122;50.074;19.920;2023-03-04T17:06:39;4.00;99.90
19920;DHT22;10122;50.074;19.920;2023-03-04T17:09:07;4.00;99.90
19920;DHT22;10122;50.074;19.920;2023-03-04T17:11:32;4.00;99.90
19920;DHT22;10122;50.074;19.920;2023-03-04T17:13:59;4.00;99.90
19920;DHT22;10122;50.074;19.920;2023-03-04T17:16:25;4.00;99.90
19920;DHT22;10122;50.074;19.920;2023-03-04T17:18:51;4.00;99.90
19920;DHT22;10122;50.074;19.920;2023-03-04T17:21:20;4.00;99.90
19920;DHT22;10122;50.074;19.920;2023-03-04T17:23:46;4.00;99.90
19920;DHT22;10122;50.074;19.920;2023-03-04T17:26:12;4.00;99.90
19920;DHT22;10122;50.074;19.920;2023-03-04T17:28:39;4.00;99.90
19920;DHT22;10122;50.074;19.920;2023-03-04T17:31:10;4.10;99.90
19920;DHT22;10122;50.074;19.920;2023-03-04T17:33:35;4.10;99.90
19920;DHT22;10122;50.074;19.920;2023-03-04T17:36:01;4.10;99.90
19920;DHT22;10122;50.074;19.920;2023-03-04T17:38:27;4.00;99.90